Time;durP1;ratioP1;P1;durP2;ratioP2;P2;SDS_P1;SDS_P2;PMS_P1;PMS_P2;Temp;Humidity;BMP_temperature;BMP_pressure;BME280_temperature;BME280_humidity;BME280_pressure;Samples;Min_cycle;Max_cycle;Signal;HPM_P1;HPM_P2
2022/01/12 10:12:56;;;;;;;24.17;21.87;;;6.00;99.90;;;;;;5127546;27;20595;-74
2022/01/12 10:15:25;;;;;;;22.80;21.00;;;6.70;99.90;;;;;;5127615;27;20451;-74
2022/01/12 10:17:52;;;;;;;22.27;20.57;;;6.30;99.90;;;;;;5127623;27;20448;-74
2022/01/12 10:20:21;;;;;;;20.77;19.27;;;7.50;98.40;;;;;;5127689;27;20494;-75
2022/01/12 10:23:02;;;;;;;20.93;19.27;;;7.60;96.50;;;;;;5127611;27;20444;-74
2022/01/12 10:25:30;;;;;;;21.93;20.30;;;7.30;96.00;;;;;;5127433;27;20457;-75
2022/01/12 10:27:59;;;;;;;24.03;21.97;;;7.50;96.80;;;;;;5127031;27;20454;-75
2022/01/12 10:30:27;;;;;;;21.67;20.03;;;8.40;94.80;;;;;;5127172;27;20685;-75
2022/01/12 10:33:02;;;;;;;22.10;20.30;;;8.20;94.00;;;;;;5127155;27;20445;-75
2022/01/12 10:35:29;;;;;;;22.70;21.00;;;8.70;93.90;;;;;;5127257;27;20953;-75
2022/01/12 10:38:06;;;;;;;22.77;21.03;;;9.40;92.20;;;;;;5127068;27;20456;-75
2022/01/12 10:40:44;;;;;;;21.20;19.47;;;10.50;90.60;;;;;;5127519;27;20481;-75
2022/01/12 10:43:28;;;;;;;20.77;19.30;;;10.40;86.00;;;;;;5127052;27;20444;-75
2022/01/12 10:45:55;;;;;;;22.60;20.77;;;8.90;89.60;;;;;;5126957;27;20451;-74
2022/01/12 10:48:23;;;;;;;22.03;20.20;;;8.00;90.80;;;;;;5126907;27;20458;-73
2022/01/12 10:50:58;;;;;;;20.67;19.03;;;7.20;92.80;;;;;;5127086;27;20819;-73
2022/01/12 10:53:29;;;;;;;23.40;21.30;;;6.40;94.20;;;;;;5126701;27;20445;-74
2022/01/12 10:56:07;;;;;;;20.70;19.20;;;6.10;95.60;;;;;;5126803;27;20580;-73
2022/01/12 10:58:37;;;;;;;21.17;19.00;;;6.90;95.40;;;;;;5127056;27;20822;-72
2022/01/12 11:01:04;;;;;;;20.60;19.20;;;7.40;93.80;;;;;;5126970;27;20498;-75
2022/01/12 11:03:31;;;;;;;20.70;19.10;;;8.50;93.00;;;;;;5126549;27;20917;-74
2022/01/12 11:05:59;;;;;;;20.00;18.60;;;9.80;91.10;;;;;;5126581;27;20446;-75
2022/01/12 11:08:26;;;;;;;22.10;20.50;;;10.20;87.10;;;;;;5126418;27;20715;-75
2022/01/12 11:10:55;;;;;;;19.37;18.07;;;10.40;85.80;;;;;;5126278;27;20515;-74
2022/01/12 11:13:22;;;;;;;21.00;19.37;;;11.90;82.00;;;;;;5114849;27;20481;-73
2022/01/12 11:15:52;;;;;;;21.80;20.30;;;11.60;79.50;;;;;;5112986;28;20456;-75
2022/01/12 11:18:22;;;;;;;22.43;21.03;;;11.80;78.70;;;;;;5112872;28;20457;-75
2022/01/12 11:20:51;;;;;;;20.77;19.37;;;12.20;78.10;;;;;;5112850;28;20452;-74
2022/01/12 11:23:19;;;;;;;23.53;21.73;;;12.90;74.80;;;;;;5112889;28;20456;-74
2022/01/12 11:25:48;;;;;;;22.67;21.03;;;12.90;74.20;;;;;;5112577;27;20445;-74
2022/01/12 11:28:19;;;;;;;22.67;21.23;;;13.70;72.00;;;;;;5112616;28;20936;-75
2022/01/12 11:30:58;;;;;;;20.63;19.47;;;13.60;70.50;;;;;;5112518;28;20891;-74
2022/01/12 11:33:42;;;;;;;21.87;20.37;;;14.00;70.40;;;;;;5112266;28;20453;-74
2022/01/12 11:36:22;;;;;;;21.90;20.43;;;14.30;69.10;;;;;;5112376;28;20479;-75
2022/01/12 11:38:52;;;;;;;23.20;21.10;;;13.00;69.20;;;;;;5112532;28;20452;-74
2022/01/12 11:41:23;;;;;;;21.60;20.17;;;11.80;73.50;;;;;;5112566;28;20951;-74
2022/01/12 11:43:52;;;;;;;20.77;19.30;;;11.60;73.80;;;;;;5112255;27;20446;-74
2022/01/12 11:46:21;;;;;;;20.53;19.23;;;11.70;75.10;;;;;;5112255;28;20449;-74
2022/01/12 11:48:52;;;;;;;20.63;19.23;;;10.90;75.80;;;;;;5112276;28;20898;-74
2022/01/12 11:51:20;;;;;;;19.60;18.30;;;10.00;78.90;;;;;;5112334;28;20486;-74
2022/01/12 11:53:49;;;;;;;21.20;19.90;;;11.40;77.80;;;;;;5112175;28;20472;-74
2022/01/12 11:56:20;;;;;;;21.30;19.90;;;12.10;74.70;;;;;;5112131;27;20448;-74
2022/01/12 11:58:55;;;;;;;20.00;18.60;;;13.00;73.90;;;;;;5112069;28;20485;-75
2022/01/12 12:01:23;;;;;;;19.93;18.43;;;12.50;70.20;;;;;;5112026;28;20449;-75
2022/01/12 12:03:59;;;;;;;20.20;19.00;;;12.70;71.70;;;;;;5111850;28;20484;-75
2022/01/12 12:06:26;;;;;;;18.27;17.07;;;11.90;70.20;;;;;;5111727;28;20453;-73
2022/01/12 12:08:58;;;;;;;17.50;16.40;;;11.30;72.10;;;;;;5111773;28;20456;-74
2022/01/12 12:11:28;;;;;;;18.20;17.10;;;11.60;73.80;;;;;;5111377;28;20853;-74
2022/01/12 12:14:12;;;;;;;18.03;16.93;;;12.50;71.00;;;;;;5106899;28;20465;-75
2022/01/12 12:16:39;;;;;;;19.77;18.37;;;13.00;70.80;;;;;;5102552;28;20956;-75
2022/01/12 12:19:07;;;;;;;19.30;18.10;;;13.70;67.30;;;;;;5091301;28;20890;-74
2022/01/12 12:21:35;;;;;;;19.03;17.70;;;12.70;66.90;;;;;;5091362;28;20443;-74
2022/01/12 12:24:09;;;;;;;19.37;17.77;;;10.50;71.00;;;;;;5090176;28;20450;-75
2022/01/12 12:26:42;;;;;;;19.67;18.47;;;8.40;78.60;;;;;;5091201;28;20445;-73
2022/01/12 12:29:09;;;;;;;19.07;17.83;;;8.40;83.80;;;;;;5090760;28;20442;-74
2022/01/12 12:31:36;;;;;;;17.30;16.20;;;8.20;82.60;;;;;;5090931;28;20508;-75
2022/01/12 12:34:04;;;;;;;17.77;16.57;;;8.60;83.60;;;;;;5091048;28;20937;-74
2022/01/12 12:36:33;;;;;;;20.30;18.90;;;8.20;83.20;;;;;;5090733;28;20457;-74
2022/01/12 12:39:11;;;;;;;18.90;17.70;;;8.10;85.40;;;;;;5090818;28;20825;-74
2022/01/12 12:41:44;;;;;;;22.70;20.87;;;8.70;84.70;;;;;;5090622;28;20442;-74
2022/01/12 12:44:22;;;;;;;21.00;19.60;;;9.80;82.80;;;;;;5090666;28;20839;-75
2022/01/12 12:46:50;;;;;;;22.90;21.07;;;10.50;78.70;;;;;;5090861;28;20503;-74
2022/01/12 12:49:17;;;;;;;21.50;19.83;;;10.60;78.50;;;;;;5090511;28;20442;-76
2022/01/12 12:51:45;;;;;;;21.60;20.10;;;11.10;76.20;;;;;;5090257;28;20485;-75
2022/01/12 12:54:13;;;;;;;20.50;19.10;;;10.90;75.70;;;;;;5090329;28;20937;-75
2022/01/12 12:56:47;;;;;;;18.93;17.67;;;9.90;76.70;;;;;;5090297;28;20672;-75
2022/01/12 12:59:14;;;;;;;21.23;19.73;;;8.50;81.20;;;;;;5090323;28;20511;-74
2022/01/12 13:01:41;;;;;;;20.43;18.83;;;7.30;86.40;;;;;;5090273;28;20439;-75
2022/01/12 13:04:07;;;;;;;20.97;19.33;;;6.80;90.30;;;;;;5090796;28;20866;-74
2022/01/12 13:06:36;;;;;;;21.60;19.70;;;6.20;91.50;;;;;;5090406;28;20945;-75
2022/01/12 13:09:06;;;;;;;21.80;20.07;;;5.80;93.00;;;;;;5090407;28;20443;-74
2022/01/12 13:11:34;;;;;;;22.87;20.90;;;5.60;94.70;;;;;;5090029;28;20488;-75
2022/01/12 13:14:03;;;;;;;22.40;20.40;;;5.40;95.90;;;;;;5090112;28;20949;-75
2022/01/12 13:16:30;;;;;;;22.70;20.63;;;5.20;97.00;;;;;;5089970;28;20459;-75
2022/01/12 13:19:05;;;;;;;22.87;20.87;;;5.10;97.80;;;;;;5089854;28;20896;-75
2022/01/12 13:21:33;;;;;;;21.53;19.93;;;4.90;98.20;;;;;;5089973;28;20452;-75
2022/01/12 13:24:01;;;;;;;22.10;20.20;;;4.90;98.70;;;;;;5089774;28;20443;-75
2022/01/12 13:26:36;;;;;;;22.70;20.80;;;4.80;99.20;;;;;;5089816;28;20825;-75
2022/01/12 13:29:07;;;;;;;23.00;20.77;;;4.70;99.70;;;;;;5089982;28;20460;-75
2022/01/12 13:31:34;;;;;;;21.07;19.27;;;4.50;99.90;;;;;;5090021;28;20477;-75
2022/01/12 13:34:03;;;;;;;20.30;18.70;;;4.30;99.90;;;;;;5089463;28;20445;-74
2022/01/12 13:36:31;;;;;;;21.90;19.80;;;4.30;99.90;;;;;;5089124;28;21049;-74
2022/01/12 13:39:00;;;;;;;21.27;19.47;;;4.40;99.90;;;;;;5089677;28;20450;-74
2022/01/12 13:41:30;;;;;;;20.10;18.50;;;4.30;99.90;;;;;;5089682;28;20451;-74
2022/01/12 13:43:58;;;;;;;20.07;18.67;;;4.30;99.90;;;;;;5089472;28;20470;-74
2022/01/12 13:46:33;;;;;;;21.23;19.67;;;4.10;99.90;;;;;;5089458;28;20509;-74
2022/01/12 13:49:20;;;;;;;21.63;19.83;;;3.90;99.90;;;;;;5089649;28;20680;-75
2022/01/12 13:51:54;;;;;;;21.03;19.23;;;4.00;99.90;;;;;;5089421;28;21031;-75
2022/01/12 13:54:22;;;;;;;21.10;19.47;;;4.00;99.90;;;;;;5089690;28;20460;-74
2022/01/12 13:56:52;;;;;;;21.40;19.40;;;4.00;99.90;;;;;;5089643;28;20952;-74
2022/01/12 13:59:20;;;;;;;20.97;19.17;;;4.00;99.90;;;;;;5089731;28;20449;-74
2022/01/12 14:01:48;;;;;;;20.60;18.90;;;3.90;99.90;;;;;;5089171;28;20446;-74
2022/01/12 14:04:31;;;;;;;20.20;18.50;;;3.80;99.90;;;;;;5089006;28;20469;-74
2022/01/12 14:07:01;;;;;;;20.37;18.87;;;3.70;99.90;;;;;;5089240;28;20447;-74
2022/01/12 14:09:30;;;;;;;1999.90;999.90;;;3.60;99.90;;;;;;5089374;28;20459;-74
2022/01/12 14:12:13;;;;;;;1999.90;999.90;;;3.60;99.90;;;;;;5088992;28;20606;-74
2022/01/12 14:14:53;;;;;;;20.37;18.53;;;3.40;99.90;;;;;;5089239;28;20535;-74
2022/01/12 14:17:25;;;;;;;20.07;18.37;;;3.30;99.90;;;;;;5089518;28;20460;-74
2022/01/12 14:19:53;;;;;;;20.07;18.40;;;3.30;99.90;;;;;;5089475;28;20442;-74
2022/01/12 14:22:20;;;;;;;19.50;17.97;;;3.30;99.90;;;;;;5089500;28;20574;-74
2022/01/12 14:24:55;;;;;;;21.00;19.27;;;3.20;99.90;;;;;;5089205;28;20993;-73
2022/01/12 14:27:23;;;;;;;20.97;19.27;;;3.30;99.90;;;;;;5089364;28;20446;-74
2022/01/12 14:29:50;;;;;;;21.87;19.73;;;3.40;99.90;;;;;;5089295;28;20454;-74
2022/01/12 14:32:17;;;;;;;22.00;19.90;;;3.40;99.90;;;;;;5088897;28;20482;-74
2022/01/12 14:34:43;;;;;;;21.80;19.87;;;3.40;99.90;;;;;;5089051;28;20447;-74
2022/01/12 14:37:12;;;;;;;20.13;18.53;;;3.40;99.90;;;;;;5088833;28;20453;-74
2022/01/12 14:39:39;;;;;;;21.20;19.47;;;3.40;99.90;;;;;;5088972;28;20474;-74
2022/01/12 14:42:06;;;;;;;21.00;19.30;;;3.40;99.90;;;;;;5089232;28;20830;-75
2022/01/12 14:44:38;;;;;;;18.47;16.87;;;3.30;99.90;;;;;;5089353;28;20454;-74
2022/01/12 14:47:05;;;;;;;21.10;19.27;;;3.20;99.90;;;;;;5089655;28;20512;-75
2022/01/12 14:49:32;;;;;;;21.80;19.90;;;3.30;99.90;;;;;;5092739;28;20480;-74
2022/01/12 14:51:59;;;;;;;21.90;19.70;;;3.20;99.90;;;;;;5092609;28;20495;-74
2022/01/12 14:54:25;;;;;;;20.70;19.10;;;3.10;99.90;;;;;;5092728;28;20454;-74
2022/01/12 14:56:52;;;;;;;23.83;21.73;;;3.00;99.90;;;;;;5092672;28;20454;-74
2022/01/12 14:59:19;;;;;;;22.50;20.20;;;2.90;99.90;;;;;;5092683;28;20455;-75
2022/01/12 15:01:47;;;;;;;21.53;19.80;;;2.90;99.90;;;;;;5092439;28;20535;-75
2022/01/12 15:04:14;;;;;;;21.67;19.77;;;2.80;99.90;;;;;;5092324;28;20471;-75
2022/01/12 15:06:40;;;;;;;22.13;20.40;;;2.80;99.90;;;;;;5092483;28;20782;-74
2022/01/12 15:09:07;;;;;;;21.83;19.90;;;2.70;99.90;;;;;;5092555;28;20450;-74
2022/01/12 15:11:39;;;;;;;21.93;20.03;;;2.70;99.90;;;;;;5091965;28;20478;-75
2022/01/12 15:14:22;;;;;;;22.00;20.17;;;2.70;99.90;;;;;;5092203;28;20454;-75
2022/01/12 15:16:51;;;;;;;20.37;18.67;;;2.60;99.90;;;;;;5092528;28;20454;-75
2022/01/12 15:19:18;;;;;;;21.43;19.63;;;2.60;99.90;;;;;;5092494;28;20812;-74
2022/01/12 15:21:44;;;;;;;20.60;18.90;;;2.60;99.90;;;;;;5092272;28;20443;-74
2022/01/12 15:24:11;;;;;;;21.10;19.30;;;2.60;99.90;;;;;;5092138;28;20943;-75
2022/01/12 15:26:38;;;;;;;23.10;21.10;;;2.50;99.90;;;;;;5092260;28;20453;-75
2022/01/12 15:29:05;;;;;;;22.27;20.27;;;2.60;99.90;;;;;;5092227;28;20448;-75
2022/01/12 15:31:31;;;;;;;21.20;19.50;;;2.50;99.90;;;;;;5092142;28;20446;-75
2022/01/12 15:33:59;;;;;;;23.30;21.30;;;2.50;99.90;;;;;;5091618;28;20524;-75
2022/01/12 15:36:26;;;;;;;23.90;21.87;;;2.40;99.90;;;;;;5091858;28;20933;-75
2022/01/12 15:38:53;;;;;;;24.17;22.00;;;2.30;99.90;;;;;;5091875;28;20459;-75
2022/01/12 15:41:19;;;;;;;22.67;20.80;;;2.20;99.90;;;;;;5092238;28;20455;-75
2022/01/12 15:43:47;;;;;;;22.53;20.50;;;2.10;99.90;;;;;;5091838;28;20442;-75
2022/01/12 15:46:14;;;;;;;24.93;22.43;;;2.00;99.90;;;;;;5091657;28;20461;-75
2022/01/12 15:48:41;;;;;;;22.67;20.90;;;1.90;99.90;;;;;;5091653;28;20490;-75
2022/01/12 15:51:10;;;;;;;23.70;21.70;;;1.80;99.90;;;;;;5091663;28;20444;-74
2022/01/12 15:53:37;;;;;;;23.77;21.90;;;1.70;99.90;;;;;;5091711;28;20484;-74
2022/01/12 15:56:05;;;;;;;23.07;21.17;;;1.70;99.90;;;;;;5092043;28;20450;-74
2022/01/12 15:58:32;;;;;;;23.53;21.50;;;1.70;99.90;;;;;;5091445;28;20454;-75
2022/01/12 16:00:58;;;;;;;22.70;20.67;;;1.50;99.90;;;;;;5091550;28;20473;-75
2022/01/12 16:03:26;;;;;;;23.70;21.70;;;1.40;99.90;;;;;;5091234;28;20471;-75
2022/01/12 16:05:53;;;;;;;24.90;22.60;;;1.30;99.90;;;;;;5091499;28;20508;-74
2022/01/12 16:08:21;;;;;;;26.53;23.70;;;1.20;99.90;;;;;;5091587;28;20457;-75
2022/01/12 16:10:48;;;;;;;24.83;22.63;;;1.10;99.90;;;;;;5091081;28;20454;-75
2022/01/12 16:13:17;;;;;;;25.97;23.50;;;1.00;99.90;;;;;;5091271;28;21024;-75
2022/01/12 16:15:43;;;;;;;24.30;21.90;;;0.80;99.90;;;;;;5090992;28;20519;-73
2022/01/12 16:18:10;;;;;;;21.00;19.30;;;0.80;99.90;;;;;;5090996;28;20447;-74
2022/01/12 16:20:38;;;;;;;23.40;21.50;;;0.70;99.90;;;;;;5091174;28;20806;-74
2022/01/12 16:23:05;;;;;;;24.50;22.03;;;0.70;99.90;;;;;;5091282;28;20449;-74
2022/01/12 16:25:34;;;;;;;23.20;21.20;;;0.60;99.90;;;;;;5091305;28;20451;-74
2022/01/12 16:28:02;;;;;;;25.73;23.43;;;0.50;99.90;;;;;;5091095;28;20480;-72
2022/01/12 16:30:47;;;;;;;26.63;24.13;;;0.60;99.90;;;;;;5090970;28;20473;-74
2022/01/12 16:33:14;;;;;;;25.87;23.47;;;0.50;99.90;;;;;;5090770;28;20906;-74
2022/01/12 16:35:42;;;;;;;25.37;22.87;;;0.50;99.90;;;;;;5090979;28;20451;-75
2022/01/12 16:38:11;;;;;;;25.40;22.93;;;0.50;99.90;;;;;;5090710;28;20448;-73
2022/01/12 16:40:39;;;;;;;22.03;20.17;;;0.50;99.90;;;;;;5091030;28;20446;-75
2022/01/12 16:43:08;;;;;;;21.37;19.47;;;0.50;99.90;;;;;;5091057;28;20438;-75
2022/01/12 16:45:35;;;;;;;22.33;20.37;;;0.50;99.90;;;;;;5091130;28;20472;-74
2022/01/12 16:48:02;;;;;;;20.87;19.07;;;0.50;99.90;;;;;;5090368;28;20528;-74
2022/01/12 16:50:28;;;;;;;19.60;18.03;;;0.60;99.90;;;;;;5090564;28;20438;-74
2022/01/12 16:52:55;;;;;;;21.37;19.47;;;0.50;99.90;;;;;;5090306;28;21016;-74
2022/01/12 16:55:22;;;;;;;21.23;19.33;;;0.40;99.90;;;;;;5090870;28;20457;-75
2022/01/12 16:57:51;;;;;;;23.97;21.53;;;0.40;99.90;;;;;;5090607;28;20473;-74
2022/01/12 17:00:18;;;;;;;24.90;22.23;;;0.20;99.90;;;;;;5090314;28;20473;-74
2022/01/12 17:02:44;;;;;;;24.73;22.33;;;0.20;99.90;;;;;;5090212;28;20466;-74
2022/01/12 17:05:11;;;;;;;24.30;22.00;;;0.30;99.90;;;;;;5090420;28;20520;-74
2022/01/12 17:07:38;;;;;;;27.57;24.87;;;0.30;99.90;;;;;;5090333;28;20820;-74
2022/01/12 17:10:06;;;;;;;24.83;22.60;;;0.30;99.90;;;;;;5089936;28;20457;-73
2022/01/12 17:12:32;;;;;;;25.00;22.77;;;0.30;99.90;;;;;;5089802;28;20490;-73
2022/01/12 17:15:40;;;;;;;26.23;23.83;;;0.30;99.90;;;;;;5089878;28;20453;-74
2022/01/12 17:18:44;;;;;;;27.17;24.50;;;0.20;99.90;;;;;;5090123;28;20457;-74
2022/01/12 17:21:13;;;;;;;31.43;26.10;;;0.10;99.90;;;;;;5089950;28;20450;-75
2022/01/12 17:23:48;;;;;;;23.63;21.40;;;0.00;99.90;;;;;;5089815;28;20495;-75
2022/01/12 17:26:15;;;;;;;25.97;23.27;;;0.00;99.90;;;;;;5089871;28;20443;-75
2022/01/12 17:28:42;;;;;;;26.83;24.30;;;0.00;99.90;;;;;;5089876;28;20477;-75
2022/01/12 17:31:10;;;;;;;24.93;22.77;;;-0.10;99.90;;;;;;5089974;28;20450;-74
2022/01/12 17:33:39;;;;;;;25.50;22.87;;;-0.20;99.90;;;;;;5089925;28;20486;-75
2022/01/12 17:36:36;;;;;;;24.17;21.90;;;-0.20;99.90;;;;;;5090154;28;20456;-75
2022/01/12 17:39:07;;;;;;;24.40;22.20;;;-0.20;99.90;;;;;;5089914;28;20442;-74
2022/01/12 17:41:34;;;;;;;27.60;24.70;;;-0.20;99.90;;;;;;5090032;28;20450;-74
2022/01/12 17:44:01;;;;;;;27.93;25.13;;;-0.20;99.90;;;;;;5089646;28;20442;-75
2022/01/12 17:46:29;;;;;;;26.67;24.27;;;-0.10;99.90;;;;;;5089568;28;20442;-74
2022/01/12 17:48:59;;;;;;;24.70;22.60;;;-0.10;99.90;;;;;;5089319;28;20450;-74
2022/01/12 17:51:26;;;;;;;26.17;23.87;;;-0.10;99.90;;;;;;5089385;28;20461;-74
2022/01/12 17:53:53;;;;;;;25.63;23.20;;;-0.30;99.90;;;;;;5089197;28;20495;-74
2022/01/12 17:56:19;;;;;;;25.03;21.70;;;-0.30;99.90;;;;;;5089643;28;20460;-75
2022/01/12 17:58:46;;;;;;;25.03;22.50;;;-0.40;99.90;;;;;;5089403;28;20457;-75
